createdAt,value
2019-02-25T00:05:03.350Z,29.20
2019-02-25T00:07:31.710Z,40.80
2019-02-25T00:10:00.034Z,44.50
2019-02-25T00:12:28.390Z,31.30
2019-02-25T00:14:56.842Z,38.13
2019-02-25T00:17:25.222Z,23.40
2019-02-25T00:19:53.522Z,42.70
2019-02-25T00:22:21.938Z,46.00
2019-02-25T00:24:50.320Z,47.67
2019-02-25T00:27:19.781Z,45.83
2019-02-25T00:29:48.242Z,45.93
2019-02-25T00:32:16.582Z,26.83
2019-02-25T00:34:45.002Z,39.00
2019-02-25T00:40:30.142Z,46.13
2019-02-25T00:42:58.432Z,42.07
2019-02-25T00:45:26.755Z,38.93
2019-02-25T00:47:55.090Z,43.90
2019-02-25T00:50:23.301Z,43.27
2019-02-25T00:56:07.360Z,46.00
2019-02-25T00:58:35.718Z,38.97
2019-02-25T01:01:04.210Z,36.70
2019-02-25T01:03:34.222Z,35.17
2019-02-25T01:06:02.673Z,42.23
2019-02-25T01:08:31.035Z,47.40
2019-02-25T01:10:59.390Z,48.73
2019-02-25T01:13:27.839Z,43.47
2019-02-25T01:15:56.193Z,38.83
2019-02-25T01:18:24.592Z,27.03
2019-02-25T01:20:52.961Z,25.83
2019-02-25T01:23:21.322Z,32.03
2019-02-25T01:25:49.738Z,26.63
2019-02-25T01:28:18.150Z,48.47
2019-02-25T01:30:46.590Z,40.57
2019-02-25T01:33:14.943Z,35.53
2019-02-25T01:35:43.390Z,39.87
2019-02-25T01:38:11.739Z,40.23
2019-02-25T01:40:40.022Z,54.87
2019-02-25T01:43:08.373Z,36.37
2019-02-25T01:45:36.778Z,43.67
2019-02-25T01:51:22.149Z,29.87
2019-02-25T01:53:50.953Z,33.67
2019-02-25T01:56:19.269Z,37.43
2019-02-25T01:58:47.450Z,30.97
2019-02-25T02:01:15.781Z,37.67
2019-02-25T02:03:45.338Z,29.80
2019-02-25T02:06:13.745Z,29.90
2019-02-25T02:08:41.949Z,34.23
2019-02-25T02:11:10.366Z,27.57
2019-02-25T02:13:38.662Z,46.63
2019-02-25T02:16:07.821Z,42.47
2019-02-25T02:18:36.224Z,43.90
2019-02-25T02:21:04.603Z,27.63
2019-02-25T02:23:33.042Z,46.30
2019-02-25T02:26:01.420Z,29.97
2019-02-25T02:28:29.769Z,34.83
2019-02-25T02:30:58.110Z,32.17
2019-02-25T02:33:26.490Z,45.73
2019-02-25T02:35:54.862Z,43.00
2019-02-25T02:38:23.346Z,42.43
2019-02-25T02:40:51.822Z,30.13
2019-02-25T02:43:20.182Z,39.73
2019-02-25T02:45:49.991Z,28.30
2019-02-25T02:48:19.986Z,22.43
2019-02-25T02:50:48.400Z,30.93
2019-02-25T02:53:16.747Z,39.87
2019-02-25T02:55:45.078Z,41.37
2019-02-25T02:58:13.426Z,35.27
2019-02-25T03:00:41.942Z,37.93
2019-02-25T03:03:10.115Z,32.10
2019-02-25T03:05:38.570Z,29.03
2019-02-25T03:08:06.962Z,44.17
2019-02-25T03:10:35.223Z,41.53
2019-02-25T03:13:03.709Z,36.57
2019-02-25T03:15:32.099Z,43.97
2019-02-25T03:18:00.310Z,23.00
2019-02-25T03:20:28.703Z,32.80
2019-02-25T03:22:57.194Z,42.20
2019-02-25T03:25:25.503Z,34.73
2019-02-25T03:27:53.701Z,24.47
2019-02-25T03:30:22.602Z,43.53
2019-02-25T03:32:50.937Z,37.80
2019-02-25T03:35:19.558Z,35.73
2019-02-25T03:41:05.148Z,39.03
2019-02-25T03:43:33.614Z,37.10
2019-02-25T03:49:17.580Z,32.10
2019-02-25T03:51:45.984Z,39.90
2019-02-25T03:54:14.358Z,31.90
2019-02-25T03:59:47.210Z,42.87
2019-02-25T04:05:20.065Z,28.73
2019-02-25T04:07:48.643Z,45.17
2019-02-25T04:10:17.015Z,33.53
2019-02-25T04:16:02.482Z,42.37
2019-02-25T04:21:47.143Z,29.10
2019-02-25T04:24:15.590Z,33.63
2019-02-25T04:29:59.034Z,37.63
2019-02-25T04:32:28.065Z,40.50
2019-02-25T04:34:56.393Z,30.07
2019-02-25T04:40:41.401Z,40.43
2019-02-25T04:46:26.510Z,29.23
2019-02-25T04:48:54.711Z,33.97
2019-02-25T04:54:28.370Z,38.53
2019-02-25T05:00:13.600Z,30.87
2019-02-25T05:05:57.531Z,34.17
2019-02-25T05:08:26.932Z,42.70
2019-02-25T05:10:55.182Z,24.77
2019-02-25T05:13:23.812Z,29.83
2019-02-25T05:15:52.202Z,33.87
2019-02-25T05:21:35.891Z,34.10
2019-02-25T05:27:19.937Z,42.77
2019-02-25T05:29:48.158Z,26.33
2019-02-25T05:32:16.531Z,37.43
2019-02-25T05:34:44.742Z,36.20
2019-02-25T05:37:13.106Z,28.90
2019-02-25T05:39:41.611Z,40.87
2019-02-25T05:42:09.967Z,38.23
2019-02-25T05:44:38.478Z,32.90
2019-02-25T05:47:06.907Z,34.30
2019-02-25T05:49:35.434Z,38.77
2019-02-25T05:52:05.167Z,41.50
2019-02-25T05:54:33.639Z,41.93
2019-02-25T05:57:01.911Z,43.40
2019-02-25T05:59:30.154Z,37.80
2019-02-25T06:01:58.578Z,41.80
2019-02-25T06:04:27.041Z,37.93
2019-02-25T06:06:55.395Z,39.27
2019-02-25T06:09:23.802Z,42.50
2019-02-25T06:11:52.073Z,36.30
2019-02-25T06:14:20.442Z,41.77
2019-02-25T06:16:48.858Z,28.30
2019-02-25T06:19:17.425Z,33.93
2019-02-25T06:21:45.743Z,38.90
2019-02-25T06:24:14.106Z,42.63
2019-02-25T06:26:42.702Z,39.57
2019-02-25T06:29:11.058Z,39.93
2019-02-25T06:31:39.483Z,49.47
2019-02-25T06:34:08.044Z,34.83
2019-02-25T06:36:36.499Z,38.53
2019-02-25T06:39:05.984Z,40.93
2019-02-25T06:41:34.363Z,41.63
2019-02-25T06:44:02.710Z,28.43
2019-02-25T06:46:30.982Z,25.10
2019-02-25T06:48:59.343Z,30.90
2019-02-25T06:51:27.823Z,30.23
2019-02-25T06:53:56.279Z,30.37
2019-02-25T06:56:24.648Z,32.93
2019-02-25T06:58:53.033Z,22.37
2019-02-25T07:01:21.495Z,37.47
2019-02-25T07:03:51.448Z,35.23
2019-02-25T07:06:21.342Z,45.77
2019-02-25T07:08:51.358Z,44.17
2019-02-25T07:11:21.375Z,43.10
2019-02-25T07:13:51.294Z,40.80
2019-02-25T07:16:22.522Z,25.50
2019-02-25T07:18:52.435Z,45.90
2019-02-25T07:21:22.475Z,36.57
2019-02-25T07:23:50.561Z,50.00
2019-02-25T07:26:20.512Z,33.50
2019-02-25T07:28:50.309Z,35.13
2019-02-25T07:31:20.350Z,22.20
2019-02-25T07:33:50.344Z,38.30
2019-02-25T07:36:20.283Z,40.00
2019-02-25T07:38:50.585Z,31.13
2019-02-25T07:41:20.668Z,36.30
2019-02-25T07:43:50.545Z,35.70
2019-02-25T07:46:20.504Z,37.50
2019-02-25T07:48:48.623Z,34.20
2019-02-25T07:51:18.604Z,22.67
2019-02-25T07:53:48.511Z,40.03
2019-02-25T07:56:18.466Z,42.73
2019-02-25T07:58:48.459Z,36.63
2019-02-25T08:01:19.479Z,39.03
2019-02-25T08:03:49.609Z,33.33
2019-02-25T08:06:20.634Z,42.10
2019-02-25T08:08:48.726Z,50.90
2019-02-25T08:11:18.730Z,43.77
2019-02-25T08:13:48.650Z,48.87
2019-02-25T08:16:18.681Z,37.40
2019-02-25T08:18:48.598Z,43.23
2019-02-25T08:21:18.600Z,51.77
2019-02-25T08:23:48.549Z,58.33
2019-02-25T08:26:18.637Z,44.23
2019-02-25T08:28:48.583Z,48.03
2019-02-25T08:31:18.563Z,42.17
2019-02-25T08:33:48.510Z,47.30
2019-02-25T08:36:19.970Z,45.40
2019-02-25T08:38:49.853Z,46.43
2019-02-25T08:41:19.850Z,42.17
2019-02-25T08:43:49.697Z,50.00
2019-02-25T08:46:19.818Z,41.90
2019-02-25T08:48:49.738Z,39.80
2019-02-25T08:51:18.104Z,49.80
2019-02-25T08:53:47.825Z,44.80
2019-02-25T08:56:16.088Z,45.27
2019-02-25T08:58:44.403Z,44.80
2019-02-25T09:01:12.948Z,51.80
2019-02-25T09:03:41.342Z,38.80
2019-02-25T09:06:09.792Z,46.93
2019-02-25T09:08:39.967Z,38.93
2019-02-25T09:11:14.145Z,54.63
2019-02-25T09:13:39.262Z,40.60
2019-02-25T09:16:07.643Z,32.53
2019-02-25T09:18:36.010Z,48.33
2019-02-25T09:21:04.395Z,52.10
2019-02-25T09:23:32.497Z,45.43
2019-02-25T09:26:00.843Z,35.07
2019-02-25T09:28:29.338Z,47.27
2019-02-25T09:30:57.654Z,53.40
2019-02-25T09:33:26.098Z,49.23
2019-02-25T09:35:54.537Z,59.70
2019-02-25T09:38:24.390Z,43.27
2019-02-25T09:40:52.981Z,52.13
2019-02-25T09:43:21.458Z,48.73
2019-02-25T09:45:49.939Z,37.87
2019-02-25T09:48:18.408Z,41.23
2019-02-25T09:50:46.898Z,39.23
2019-02-25T09:53:15.143Z,33.70
2019-02-25T09:55:43.499Z,40.40
2019-02-25T09:58:11.921Z,52.43
2019-02-25T10:00:40.405Z,40.53
2019-02-25T10:03:08.855Z,52.27
2019-02-25T10:05:37.170Z,50.37
2019-02-25T10:08:05.595Z,53.30
2019-02-25T10:10:34.040Z,42.50
2019-02-25T10:13:02.308Z,41.27
2019-02-25T10:15:30.636Z,46.97
2019-02-25T10:17:59.127Z,34.30
2019-02-25T10:20:27.470Z,47.37
2019-02-25T10:22:55.930Z,46.07
2019-02-25T10:25:24.298Z,45.33
2019-02-25T10:27:52.680Z,46.27
2019-02-25T10:30:21.372Z,47.33
2019-02-25T10:32:49.682Z,45.80
2019-02-25T10:35:19.450Z,54.40
2019-02-25T10:37:47.939Z,51.93
2019-02-25T10:40:19.080Z,49.40
2019-02-25T10:42:46.185Z,47.03
2019-02-25T10:45:16.459Z,56.13
2019-02-25T10:47:46.800Z,46.70
2019-02-25T10:50:15.040Z,41.13
2019-02-25T10:52:44.792Z,63.87
2019-02-25T10:55:14.951Z,58.27
2019-02-25T10:57:43.402Z,56.47
2019-02-25T11:00:13.926Z,45.33
2019-02-25T11:02:44.456Z,51.23
2019-02-25T11:05:12.403Z,39.07
2019-02-25T11:07:42.032Z,47.67
2019-02-25T11:10:14.019Z,51.37
2019-02-25T11:12:43.426Z,48.53
2019-02-25T11:15:13.748Z,42.33
2019-02-25T11:17:42.155Z,39.50
2019-02-25T11:20:11.335Z,46.67
2019-02-25T11:22:40.507Z,46.73
2019-02-25T11:25:11.239Z,43.30
2019-02-25T11:27:40.046Z,58.00
2019-02-25T11:30:12.095Z,32.43
2019-02-25T11:32:40.383Z,41.97
2019-02-25T11:35:10.771Z,52.07
2019-02-25T11:37:39.775Z,54.23
2019-02-25T11:40:09.672Z,42.30
2019-02-25T11:42:38.167Z,46.87
2019-02-25T11:45:08.017Z,47.37
2019-02-25T11:47:36.578Z,48.10
2019-02-25T11:50:06.605Z,56.70
2019-02-25T11:52:35.030Z,55.20
2019-02-25T11:55:03.419Z,47.63
2019-02-25T11:57:31.903Z,55.27
2019-02-25T12:00:00.351Z,52.60
2019-02-25T12:02:28.871Z,37.23
2019-02-25T12:04:57.279Z,54.40
2019-02-25T12:07:25.525Z,41.43
2019-02-25T12:09:53.908Z,55.30
2019-02-25T12:12:22.270Z,48.53
2019-02-25T12:14:50.818Z,64.77
2019-02-25T12:17:19.191Z,59.27
2019-02-25T12:19:47.550Z,63.10
2019-02-25T12:22:15.910Z,59.27
2019-02-25T12:24:44.245Z,63.60
2019-02-25T12:27:12.598Z,55.73
2019-02-25T12:29:41.159Z,53.10
2019-02-25T12:32:09.646Z,67.03
2019-02-25T12:34:38.127Z,60.10
2019-02-25T12:37:06.615Z,58.20
2019-02-25T12:39:34.807Z,59.90
2019-02-25T12:42:03.264Z,66.57
2019-02-25T12:44:31.754Z,57.57
2019-02-25T12:47:00.145Z,62.03
2019-02-25T12:49:28.467Z,50.77
2019-02-25T12:51:56.790Z,36.00
2019-02-25T12:54:25.163Z,57.73
2019-02-25T12:56:54.550Z,58.40
2019-02-25T12:59:23.052Z,53.60
2019-02-25T13:01:51.537Z,41.93
2019-02-25T13:04:19.790Z,49.17
2019-02-25T13:06:48.402Z,54.80
2019-02-25T13:09:16.774Z,60.00
2019-02-25T13:11:45.157Z,56.93
2019-02-25T13:14:14.757Z,45.33
2019-02-25T13:16:43.162Z,61.03
2019-02-25T13:19:11.738Z,55.00
2019-02-25T13:21:40.218Z,51.50
2019-02-25T13:24:09.894Z,40.43
2019-02-25T13:26:39.405Z,52.37
2019-02-25T13:29:09.550Z,50.53
2019-02-25T13:31:37.885Z,58.30
2019-02-25T13:34:06.329Z,54.17
2019-02-25T13:36:34.677Z,49.17
2019-02-25T13:39:05.517Z,65.83
2019-02-25T13:41:34.918Z,58.57
2019-02-25T13:44:03.344Z,77.07
2019-02-25T13:46:32.000Z,38.43
2019-02-25T13:49:00.362Z,47.20
2019-02-25T13:51:28.747Z,65.17
2019-02-25T13:53:57.155Z,27.13
2019-02-25T13:56:25.617Z,65.30
2019-02-25T13:58:54.125Z,64.20
2019-02-25T14:01:22.580Z,51.13
2019-02-25T14:03:50.931Z,52.37
2019-02-25T14:06:19.490Z,59.87
2019-02-25T14:08:47.723Z,65.13
2019-02-25T14:11:16.098Z,68.03
2019-02-25T14:13:45.224Z,70.90
2019-02-25T14:16:13.804Z,54.27
2019-02-25T14:18:42.223Z,69.13
2019-02-25T14:21:10.834Z,72.37
2019-02-25T14:23:40.548Z,64.23
2019-02-25T14:26:09.239Z,78.07
2019-02-25T14:28:37.422Z,48.97
2019-02-25T14:31:07.234Z,45.23
2019-02-25T14:33:35.996Z,69.70
2019-02-25T14:36:05.691Z,69.37
2019-02-25T14:38:35.413Z,52.07
2019-02-25T14:41:04.624Z,70.87
2019-02-25T14:43:37.103Z,66.93
2019-02-25T14:46:04.873Z,76.60
2019-02-25T14:48:35.226Z,67.77
2019-02-25T14:51:03.899Z,56.40
2019-02-25T14:56:50.262Z,81.33
2019-02-25T14:59:20.505Z,66.60
2019-02-25T15:05:06.996Z,69.93
2019-02-25T15:10:51.639Z,68.60
2019-02-25T15:13:20.051Z,67.40
2019-02-25T15:15:48.394Z,64.03
2019-02-25T15:18:17.467Z,76.83
2019-02-25T15:20:45.913Z,75.70
2019-02-25T15:23:16.543Z,41.47
2019-02-25T15:25:45.425Z,77.97
2019-02-25T15:28:16.156Z,81.93
2019-02-25T15:34:00.959Z,66.23
2019-02-25T15:36:29.351Z,69.87
2019-02-25T15:42:02.311Z,52.73
2019-02-25T15:44:31.994Z,79.27
2019-02-25T15:47:02.484Z,63.97
2019-02-25T15:49:30.390Z,50.43
2019-02-25T15:51:58.901Z,68.73
2019-02-25T15:57:43.218Z,70.33
2019-02-25T16:03:27.951Z,45.60
2019-02-25T16:09:17.270Z,70.63
2019-02-25T16:15:00.427Z,80.27
2019-02-25T16:17:28.752Z,67.30
2019-02-25T16:23:04.774Z,77.80
2019-02-25T16:28:47.695Z,77.17
2019-02-25T16:34:34.057Z,95.73
2019-02-25T16:37:04.813Z,67.17
2019-02-25T16:39:33.066Z,91.93
2019-02-25T16:42:01.368Z,57.50
2019-02-25T16:44:30.283Z,74.30
2019-02-25T16:47:00.140Z,76.37
2019-02-25T16:49:40.745Z,66.33
2019-02-25T16:52:24.361Z,97.33
2019-02-25T16:58:13.083Z,61.50
2019-02-25T17:00:42.008Z,75.37
2019-02-25T17:03:13.678Z,100.00
2019-02-25T17:08:58.894Z,71.70
2019-02-25T17:11:27.511Z,66.90
2019-02-25T17:17:11.343Z,72.63
2019-02-25T17:19:39.763Z,116.33
2019-02-25T17:22:08.596Z,90.93
2019-02-25T17:24:38.768Z,91.93
2019-02-25T17:27:08.959Z,84.60
2019-02-25T17:32:53.570Z,82.83
2019-02-25T17:35:28.878Z,85.40
2019-02-25T17:41:13.329Z,97.07
2019-02-25T17:43:43.060Z,64.07
2019-02-25T17:49:19.361Z,63.63
2019-02-25T17:51:49.564Z,57.30
2019-02-25T17:57:35.066Z,107.97
2019-02-25T18:03:19.512Z,91.17
2019-02-25T18:05:49.033Z,54.50
2019-02-25T18:08:18.870Z,71.00
2019-02-25T18:10:50.117Z,60.07
2019-02-25T18:16:37.462Z,81.20
2019-02-25T18:19:07.033Z,102.37
2019-02-25T18:21:35.490Z,97.90
2019-02-25T18:24:03.900Z,85.43
2019-02-25T18:26:32.678Z,75.00
2019-02-25T18:29:01.291Z,82.70
2019-02-25T18:31:30.089Z,64.07
2019-02-25T18:33:58.441Z,100.20
2019-02-25T18:36:28.836Z,82.13
2019-02-25T18:38:57.091Z,129.80
2019-02-25T18:41:27.429Z,96.77
2019-02-25T18:43:55.622Z,146.00
2019-02-25T18:46:25.531Z,77.93
2019-02-25T18:48:54.021Z,125.57
2019-02-25T18:51:24.435Z,109.50
2019-02-25T18:53:53.100Z,111.10
2019-02-25T18:56:22.775Z,118.90
2019-02-25T18:58:51.629Z,207.83
2019-02-25T19:01:20.228Z,172.63
2019-02-25T19:03:50.458Z,117.77
2019-02-25T19:06:19.336Z,129.30
2019-02-25T19:08:49.395Z,113.07
2019-02-25T19:11:18.982Z,125.77
2019-02-25T19:13:49.851Z,117.60
2019-02-25T19:16:19.774Z,143.37
2019-02-25T19:18:49.374Z,85.53
2019-02-25T19:21:18.231Z,103.43
2019-02-25T19:23:48.490Z,103.17
2019-02-25T19:26:17.328Z,109.03
2019-02-25T19:28:48.003Z,95.03
2019-02-25T19:31:16.559Z,102.73
2019-02-25T19:33:44.872Z,108.07
2019-02-25T19:36:13.885Z,129.30
2019-02-25T19:42:00.512Z,147.70
2019-02-25T19:44:29.800Z,102.63
2019-02-25T19:46:58.844Z,125.73
2019-02-25T19:49:30.123Z,76.70
2019-02-25T19:51:59.670Z,88.63
2019-02-25T19:54:29.528Z,94.20
2019-02-25T19:56:59.219Z,119.30
2019-02-25T20:02:42.828Z,101.53
2019-02-25T20:05:11.991Z,130.57
2019-02-25T20:07:41.567Z,120.97
2019-02-25T20:10:11.611Z,91.93
2019-02-25T20:12:43.803Z,98.43
2019-02-25T20:15:16.556Z,131.70
2019-02-25T20:17:46.765Z,101.27
2019-02-25T20:20:16.079Z,141.03
2019-02-25T20:22:44.425Z,107.37
2019-02-25T20:25:16.281Z,137.97
2019-02-25T20:27:43.761Z,136.87
2019-02-25T20:30:13.787Z,138.97
2019-02-25T20:32:42.889Z,132.17
2019-02-25T20:38:29.428Z,94.70
2019-02-25T20:40:57.842Z,90.00
2019-02-25T20:43:28.204Z,102.07
2019-02-25T20:45:58.552Z,101.60
2019-02-25T20:48:27.565Z,107.83
2019-02-25T20:50:59.597Z,128.90
2019-02-25T20:53:27.431Z,85.33
2019-02-25T20:55:56.728Z,94.90
2019-02-25T20:58:26.069Z,114.13
2019-02-25T21:00:54.480Z,119.57
2019-02-25T21:03:23.572Z,117.33
2019-02-25T21:05:53.050Z,98.73
2019-02-25T21:08:23.541Z,105.37
2019-02-25T21:10:51.431Z,109.83
2019-02-25T21:13:19.672Z,87.13
2019-02-25T21:15:48.107Z,101.83
2019-02-25T21:18:16.416Z,107.83
2019-02-25T21:20:45.586Z,114.60
2019-02-25T21:23:14.665Z,132.17
2019-02-25T21:25:44.336Z,118.67
2019-02-25T21:28:12.911Z,112.80
2019-02-25T21:30:43.632Z,53.37
2019-02-25T21:33:13.309Z,95.50
2019-02-25T21:35:41.935Z,122.93
2019-02-25T21:38:10.424Z,106.70
2019-02-25T21:40:38.707Z,115.40
2019-02-25T21:46:24.634Z,98.47
2019-02-25T21:48:55.025Z,126.37
2019-02-25T21:51:23.625Z,84.23
2019-02-25T21:53:53.786Z,128.10
2019-02-25T21:56:23.253Z,114.07
2019-02-25T21:58:53.151Z,97.70
2019-02-25T22:01:21.550Z,103.13
2019-02-25T22:03:50.908Z,102.80
2019-02-25T22:06:22.074Z,113.57
2019-02-25T22:08:52.159Z,107.67
2019-02-25T22:11:21.994Z,115.83
2019-02-25T22:13:50.083Z,92.33
2019-02-25T22:16:18.621Z,106.50
2019-02-25T22:18:48.299Z,98.17
2019-02-25T22:21:19.508Z,89.00
2019-02-25T22:23:54.110Z,100.03
2019-02-25T22:26:24.120Z,106.53
2019-02-25T22:28:57.939Z,96.57
2019-02-25T22:31:30.170Z,126.47
2019-02-25T22:33:58.560Z,105.67
2019-02-25T22:36:26.862Z,78.37
2019-02-25T22:38:56.792Z,75.27
2019-02-25T22:41:25.420Z,82.40
2019-02-25T22:43:54.855Z,112.13
2019-02-25T22:46:26.014Z,98.10
2019-02-25T22:51:58.197Z,78.10
2019-02-25T22:57:46.130Z,72.00
2019-02-25T23:03:31.322Z,101.13
2019-02-25T23:09:27.406Z,83.40
2019-02-25T23:15:12.839Z,99.60
2019-02-25T23:20:59.669Z,80.83
2019-02-25T23:26:42.698Z,72.20
2019-02-25T23:29:11.198Z,93.33
2019-02-25T23:34:56.530Z,75.77
2019-02-25T23:40:42.831Z,79.03
2019-02-25T23:43:12.113Z,62.40
2019-02-25T23:48:56.782Z,60.50
2019-02-25T23:51:25.150Z,53.67
2019-02-25T23:57:08.963Z,72.63
2019-02-25T23:59:40.465Z,75.77
